Time;durP1;ratioP1;P1;durP2;ratioP2;P2;SDS_P1;SDS_P2;PMS_P1;PMS_P2;Temp;Humidity;BMP_temperature;BMP_pressure;BME280_temperature;BME280_humidity;BME280_pressure;Samples;Min_cycle;Max_cycle;Signal;HPM_P1;HPM_P2
2022/02/19 00:02:17;;;;;;;2.17;1.13;;;20.40;38.80;;;;;;5113638;28;20139;-75
2022/02/19 00:04:43;;;;;;;1.15;1.00;;;20.40;38.80;;;;;;5095682;28;20054;-75
2022/02/19 00:07:09;;;;;;;1.67;1.15;;;20.40;38.80;;;;;;5095400;28;20047;-75
2022/02/19 00:09:34;;;;;;;1.30;0.80;;;20.40;38.80;;;;;;5113471;28;20051;-75
2022/02/19 00:12:00;;;;;;;1.00;0.80;;;20.40;38.80;;;;;;5113557;28;20047;-75
2022/02/19 00:14:25;;;;;;;3.38;1.00;;;20.40;38.80;;;;;;5113438;28;20075;-75
2022/02/19 00:16:51;;;;;;;3.58;0.80;;;20.40;38.80;;;;;;5113465;28;20063;-75
2022/02/19 00:19:19;;;;;;;1.20;0.70;;;20.30;38.70;;;;;;5113458;28;20055;-75
2022/02/19 00:21:46;;;;;;;1.13;0.80;;;20.40;38.80;;;;;;5113335;28;20048;-75
2022/02/19 00:24:12;;;;;;;1.30;0.80;;;20.40;38.80;;;;;;5113613;28;20062;-75
2022/02/19 00:26:39;;;;;;;1.17;0.80;;;20.40;38.80;;;;;;5113519;28;20069;-75
2022/02/19 00:29:05;;;;;;;1.27;0.73;;;20.40;38.80;;;;;;5110794;28;20143;-75
2022/02/19 00:31:31;;;;;;;1.55;0.82;;;20.40;38.70;;;;;;5111061;28;20132;-75
2022/02/19 00:33:59;;;;;;;1.35;0.90;;;20.40;38.80;;;;;;5094895;28;20108;-75
2022/02/19 00:36:24;;;;;;;1.40;0.90;;;20.40;38.80;;;;;;5111865;28;20048;-75
2022/02/19 00:38:50;;;;;;;1.67;0.95;;;20.40;38.80;;;;;;5094790;28;20083;-75
2022/02/19 00:41:15;;;;;;;2.17;0.77;;;20.40;38.80;;;;;;5095137;28;20055;-75
2022/02/19 00:43:42;;;;;;;2.25;0.93;;;20.30;38.70;;;;;;5111450;28;20052;-75
2022/02/19 00:46:07;;;;;;;1.77;0.90;;;20.40;38.70;;;;;;5111442;28;20055;-75
2022/02/19 00:48:34;;;;;;;2.53;0.90;;;20.40;38.80;;;;;;5111541;28;20056;-75
2022/02/19 00:51:00;;;;;;;1.38;0.90;;;20.30;38.70;;;;;;5113257;28;20048;-75
2022/02/19 00:53:26;;;;;;;1.05;0.80;;;20.40;38.80;;;;;;5112634;28;20399;-75
2022/02/19 00:55:51;;;;;;;1.83;0.98;;;20.30;38.70;;;;;;5092976;28;20059;-75
2022/02/19 00:58:17;;;;;;;1.67;0.90;;;20.40;38.70;;;;;;5093987;28;20059;-75
2022/02/19 01:00:46;;;;;;;1.25;0.90;;;20.30;38.70;;;;;;5093524;28;20142;-75
2022/02/19 01:03:17;;;;;;;1.38;0.90;;;20.30;38.70;;;;;;5093841;28;20048;-75
2022/02/19 01:05:43;;;;;;;1.75;1.15;;;20.30;38.70;;;;;;5092584;28;20048;-75
2022/02/19 01:08:09;;;;;;;2.05;0.75;;;20.30;38.70;;;;;;5094431;28;20403;-75
2022/02/19 01:10:37;;;;;;;1.17;0.90;;;20.30;39.20;;;;;;5110341;28;20044;-75
2022/02/19 01:13:03;;;;;;;1.13;0.73;;;20.30;38.70;;;;;;5109814;28;20059;-75
2022/02/19 01:15:29;;;;;;;1.83;1.10;;;20.40;38.70;;;;;;5112733;28;20097;-75
2022/02/19 01:17:56;;;;;;;1.38;0.90;;;20.30;38.70;;;;;;5093351;28;20484;-75
2022/02/19 01:20:22;;;;;;;1.08;0.73;;;20.40;38.70;;;;;;5112592;28;20051;-74
2022/02/19 01:22:48;;;;;;;1.17;0.93;;;20.30;38.70;;;;;;5112628;28;20093;-75
2022/02/19 01:25:16;;;;;;;1.70;0.90;;;20.30;38.70;;;;;;5094147;28;20055;-75
2022/02/19 01:27:50;;;;;;;2.03;1.02;;;20.30;38.70;;;;;;5078593;28;20051;-74
2022/02/19 01:30:16;;;;;;;2.53;0.85;;;20.40;38.70;;;;;;5094755;28;20411;-75
2022/02/19 01:32:42;;;;;;;1.67;1.00;;;20.30;38.70;;;;;;5094654;28;20051;-75
2022/02/19 01:35:09;;;;;;;1.83;0.90;;;20.30;38.70;;;;;;5094022;28;20134;-75
2022/02/19 01:37:36;;;;;;;1.95;1.10;;;20.30;38.70;;;;;;5092490;28;20056;-75
2022/02/19 01:40:03;;;;;;;1.02;0.75;;;20.30;38.60;;;;;;5111370;28;20460;-75
2022/02/19 01:42:29;;;;;;;1.58;1.00;;;20.40;38.70;;;;;;5113311;28;20086;-75
2022/02/19 01:44:55;;;;;;;2.58;1.20;;;20.30;38.60;;;;;;5097478;28;20507;-75
2022/02/19 01:47:21;;;;;;;1.92;0.93;;;20.30;38.60;;;;;;5097483;28;20059;-75
2022/02/19 01:49:47;;;;;;;1.90;0.80;;;20.30;38.60;;;;;;5097086;28;20130;-75
2022/02/19 01:52:17;;;;;;;1.77;1.00;;;20.30;38.60;;;;;;5096475;28;20060;-75
2022/02/19 01:54:43;;;;;;;2.22;0.70;;;20.30;38.60;;;;;;5080468;28;20274;-75
2022/02/19 01:57:18;;;;;;;0.90;0.80;;;20.30;38.60;;;;;;5115649;28;20054;-74
2022/02/19 01:59:53;;;;;;;1.30;0.90;;;20.30;38.60;;;;;;5097449;28;20052;-75
2022/02/19 02:02:39;;;;;;;1.73;1.00;;;20.40;38.60;;;;;;5100559;28;20043;-75
2022/02/19 02:05:34;;;;;;;1.75;0.82;;;20.40;38.60;;;;;;5097273;28;20057;-75
2022/02/19 02:08:06;;;;;;;0.95;0.75;;;20.40;38.60;;;;;;5096688;28;20101;-75
2022/02/19 02:10:36;;;;;;;2.27;0.80;;;20.40;38.60;;;;;;5097228;28;20449;-75
2022/02/19 02:13:06;;;;;;;1.38;0.85;;;20.40;38.60;;;;;;5097363;28;20437;-75
2022/02/19 02:15:34;;;;;;;1.17;0.88;;;20.40;38.60;;;;;;5113608;28;20051;-75
2022/02/19 02:18:07;;;;;;;1.38;0.88;;;20.40;38.60;;;;;;5097205;28;20051;-75
2022/02/19 02:20:33;;;;;;;1.83;0.85;;;20.40;38.60;;;;;;5115184;28;20134;-75
2022/02/19 02:23:00;;;;;;;1.08;0.88;;;20.40;38.60;;;;;;5080073;28;20105;-75
2022/02/19 02:25:32;;;;;;;1.13;0.80;;;20.40;38.60;;;;;;5114087;28;20558;-75
2022/02/19 02:27:59;;;;;;;4.25;1.25;;;20.40;38.60;;;;;;5112661;28;20420;-75
2022/02/19 02:30:25;;;;;;;1.02;0.73;;;20.40;38.50;;;;;;5113756;28;20059;-75
2022/02/19 02:33:10;;;;;;;2.88;1.02;;;20.40;38.50;;;;;;5097153;28;20054;-75
2022/02/19 02:35:38;;;;;;;1.88;0.90;;;20.40;38.50;;;;;;5096741;28;20508;-75
2022/02/19 02:38:04;;;;;;;2.00;1.00;;;20.40;38.50;;;;;;5078811;28;20162;-75
2022/02/19 02:40:32;;;;;;;2.03;0.93;;;20.40;38.50;;;;;;5096911;28;20062;-75
2022/02/19 02:43:00;;;;;;;0.93;0.63;;;20.40;38.50;;;;;;5096666;28;20082;-75
2022/02/19 02:45:25;;;;;;;1.38;0.85;;;20.40;38.50;;;;;;5096777;28;20075;-75
2022/02/19 02:47:51;;;;;;;1.10;0.70;;;20.40;38.50;;;;;;5096172;28;20075;-74
2022/02/19 02:50:17;;;;;;;2.55;1.10;;;20.40;39.10;;;;;;5097065;28;20048;-75
2022/02/19 02:52:43;;;;;;;2.05;0.93;;;20.40;38.50;;;;;;5095927;28;20142;-75
2022/02/19 02:55:13;;;;;;;2.50;0.80;;;20.40;38.50;;;;;;5096251;28;20051;-75
2022/02/19 02:57:40;;;;;;;1.10;0.75;;;20.40;38.50;;;;;;5079787;28;20058;-75
2022/02/19 03:00:08;;;;;;;1.63;0.90;;;20.40;38.40;;;;;;5114537;28;20399;-75
2022/02/19 03:02:38;;;;;;;1.30;0.90;;;20.40;38.50;;;;;;5079979;28;20403;-75
2022/02/19 03:05:08;;;;;;;1.17;0.80;;;20.40;38.50;;;;;;5096454;28;20062;-75
2022/02/19 03:07:34;;;;;;;1.05;0.70;;;20.40;38.40;;;;;;5096164;28;20052;-74
2022/02/19 03:10:00;;;;;;;1.70;1.00;;;20.40;38.50;;;;;;5094818;28;20055;-75
2022/02/19 03:12:27;;;;;;;1.05;0.77;;;20.40;38.50;;;;;;5096116;28;20093;-74
2022/02/19 03:14:53;;;;;;;1.30;0.80;;;20.40;38.50;;;;;;5095374;28;20083;-75
2022/02/19 03:17:19;;;;;;;0.77;0.60;;;20.40;38.40;;;;;;5094441;28;20048;-75
2022/02/19 03:19:45;;;;;;;1.83;1.00;;;20.40;38.40;;;;;;5095887;28;20394;-75
2022/02/19 03:22:15;;;;;;;1.52;0.80;;;20.40;38.40;;;;;;5095987;28;20059;-75
2022/02/19 03:24:41;;;;;;;2.17;1.20;;;20.40;38.40;;;;;;5114361;28;20048;-75
2022/02/19 03:27:07;;;;;;;0.80;0.68;;;20.40;39.00;;;;;;5096032;28;20057;-75
2022/02/19 03:29:36;;;;;;;1.58;0.80;;;20.40;38.40;;;;;;5094019;28;20044;-74
2022/02/19 03:32:03;;;;;;;1.02;0.70;;;20.40;38.40;;;;;;5076973;28;20488;-74
2022/02/19 03:34:29;;;;;;;1.38;1.05;;;20.40;38.40;;;;;;5112780;28;20047;-75
2022/02/19 03:36:55;;;;;;;0.73;0.70;;;20.40;38.50;;;;;;5095745;28;20089;-75
2022/02/19 03:39:21;;;;;;;1.30;0.80;;;20.40;38.50;;;;;;5094685;28;20361;-75
2022/02/19 03:41:46;;;;;;;0.95;0.60;;;20.40;38.50;;;;;;5095814;28;20130;-75
2022/02/19 03:44:14;;;;;;;1.10;0.80;;;20.40;38.50;;;;;;5095692;28;20051;-75
2022/02/19 03:46:46;;;;;;;1.88;0.90;;;20.40;38.50;;;;;;5096074;28;20054;-75
2022/02/19 03:49:14;;;;;;;1.10;0.80;;;20.40;38.50;;;;;;5113767;28;20065;-75
2022/02/19 03:51:43;;;;;;;2.30;1.25;;;20.40;38.40;;;;;;5095456;28;20051;-75
2022/02/19 03:54:09;;;;;;;1.75;0.80;;;20.40;38.40;;;;;;5095493;28;20048;-75
2022/02/19 03:56:34;;;;;;;1.63;0.88;;;20.40;38.40;;;;;;5095706;28;20047;-75
2022/02/19 03:59:05;;;;;;;1.85;0.98;;;20.40;38.40;;;;;;5095522;28;20047;-75
2022/02/19 04:01:32;;;;;;;0.85;0.60;;;20.40;38.40;;;;;;5112306;28;20054;-75
2022/02/19 04:04:03;;;;;;;2.05;1.05;;;20.40;38.40;;;;;;5112905;28;20130;-75
2022/02/19 04:06:29;;;;;;;1.23;0.93;;;20.40;38.40;;;;;;5095033;28;20151;-75
2022/02/19 04:08:56;;;;;;;0.88;0.73;;;20.40;38.40;;;;;;5095786;28;20051;-75
2022/02/19 04:11:22;;;;;;;1.40;0.88;;;20.40;38.40;;;;;;5095214;28;20128;-75
2022/02/19 04:13:48;;;;;;;2.00;0.80;;;20.40;38.40;;;;;;5094886;28;20051;-75
2022/02/19 04:16:18;;;;;;;1.63;0.98;;;20.50;38.40;;;;;;5112373;28;20104;-75
2022/02/19 04:18:49;;;;;;;1.30;0.80;;;20.40;38.40;;;;;;5112452;28;20051;-75
2022/02/19 04:21:17;;;;;;;0.93;0.65;;;20.50;38.40;;;;;;5095040;28;20101;-75
2022/02/19 04:23:42;;;;;;;1.33;0.90;;;20.50;38.30;;;;;;5095068;28;20043;-75
2022/02/19 04:26:11;;;;;;;2.22;0.90;;;20.50;38.30;;;;;;5094888;28;20044;-75
2022/02/19 04:28:43;;;;;;;1.65;1.00;;;20.50;38.30;;;;;;5095601;28;20051;-75
2022/02/19 04:31:15;;;;;;;1.52;0.90;;;20.50;38.30;;;;;;5093636;28;20056;-75
2022/02/19 04:33:43;;;;;;;1.13;0.80;;;20.50;38.30;;;;;;5094956;28;20047;-75
2022/02/19 04:36:10;;;;;;;2.53;1.02;;;20.50;38.30;;;;;;5113303;28;20048;-75
2022/02/19 04:38:39;;;;;;;2.15;0.80;;;20.50;38.30;;;;;;5095345;28;20173;-75
2022/02/19 04:41:06;;;;;;;1.13;0.85;;;20.50;38.20;;;;;;5094700;28;20492;-75
2022/02/19 04:43:32;;;;;;;1.55;0.90;;;20.60;38.30;;;;;;5094785;28;20063;-75
2022/02/19 04:45:58;;;;;;;1.80;0.90;;;20.60;38.20;;;;;;5092984;28;20048;-75
2022/02/19 04:48:24;;;;;;;1.27;0.70;;;20.60;38.20;;;;;;5094125;28;20058;-75
2022/02/19 04:50:53;;;;;;;1.40;0.70;;;20.60;38.20;;;;;;5093708;28;20048;-75
2022/02/19 04:53:19;;;;;;;1.67;0.80;;;20.60;38.20;;;;;;5112909;28;20138;-75
2022/02/19 04:55:45;;;;;;;2.80;1.00;;;20.60;38.20;;;;;;5094512;28;20094;-75
2022/02/19 04:58:18;;;;;;;1.50;0.93;;;20.60;38.10;;;;;;5094490;28;20059;-75
2022/02/19 05:00:43;;;;;;;0.93;0.70;;;20.60;38.10;;;;;;5093276;28;20407;-75
2022/02/19 05:03:18;;;;;;;1.52;0.88;;;20.60;38.10;;;;;;5093939;28;20063;-75
2022/02/19 05:05:51;;;;;;;1.65;0.82;;;20.60;38.10;;;;;;5094059;28;20043;-75
2022/02/19 05:08:17;;;;;;;1.27;0.90;;;20.70;38.10;;;;;;5093547;28;20147;-74
2022/02/19 05:10:46;;;;;;;2.33;1.02;;;20.70;38.10;;;;;;5092692;28;20054;-75
2022/02/19 05:13:16;;;;;;;1.45;0.90;;;20.70;38.10;;;;;;5092743;28;20055;-75
2022/02/19 05:15:42;;;;;;;1.30;0.57;;;20.70;38.00;;;;;;5094024;28;20047;-75
2022/02/19 05:18:26;;;;;;;0.82;0.65;;;20.70;38.00;;;;;;5097654;28;20044;-75
2022/02/19 05:20:53;;;;;;;1.20;0.80;;;20.70;38.00;;;;;;5097124;28;20052;-75
2022/02/19 05:23:21;;;;;;;1.15;0.80;;;20.70;38.00;;;;;;5095841;28;20063;-75
2022/02/19 05:25:49;;;;;;;1.33;0.82;;;20.70;38.00;;;;;;5098031;28;20131;-75
2022/02/19 05:28:15;;;;;;;2.25;0.90;;;20.70;38.00;;;;;;5097459;28;20384;-75
2022/02/19 05:30:41;;;;;;;1.15;0.70;;;20.70;38.00;;;;;;5096296;28;20044;-75
2022/02/19 05:33:25;;;;;;;0.95;0.70;;;20.70;38.00;;;;;;5101335;28;20071;-75
2022/02/19 05:35:52;;;;;;;0.95;0.60;;;20.70;38.00;;;;;;5097567;28;20152;-75
2022/02/19 05:38:17;;;;;;;1.67;0.80;;;20.70;38.00;;;;;;5079790;28;20486;-75
2022/02/19 05:40:47;;;;;;;1.42;0.90;;;20.70;38.00;;;;;;5079808;28;20055;-75
2022/02/19 05:43:13;;;;;;;1.25;0.93;;;20.70;38.00;;;;;;5095750;28;20060;-75
2022/02/19 05:45:46;;;;;;;1.15;0.75;;;20.70;38.00;;;;;;5098151;28;20052;-75
2022/02/19 05:48:15;;;;;;;2.03;0.90;;;20.70;37.90;;;;;;5095868;28;20075;-75
2022/02/19 05:50:52;;;;;;;1.80;0.70;;;20.70;37.90;;;;;;5096389;28;20052;-75
2022/02/19 05:53:27;;;;;;;1.45;0.88;;;20.80;38.00;;;;;;5096958;28;20088;-75
2022/02/19 05:55:53;;;;;;;1.20;0.80;;;20.80;38.00;;;;;;5096096;28;20043;-74
2022/02/19 05:58:19;;;;;;;1.15;0.85;;;20.80;38.00;;;;;;5095355;28;20055;-75
2022/02/19 06:00:52;;;;;;;1.27;0.90;;;20.80;38.00;;;;;;5095765;28;20052;-75
2022/02/19 06:03:17;;;;;;;1.20;0.70;;;20.70;38.00;;;;;;5115448;28;20059;-75
2022/02/19 06:05:44;;;;;;;0.73;0.70;;;20.80;38.00;;;;;;5096599;28;20048;-75
2022/02/19 06:08:09;;;;;;;2.03;0.90;;;20.80;38.60;;;;;;5095398;28;20058;-75
2022/02/19 06:10:35;;;;;;;1.90;1.00;;;20.70;37.90;;;;;;5096946;28;20079;-75
2022/02/19 06:13:02;;;;;;;2.03;0.60;;;20.70;37.90;;;;;;5097071;28;20513;-76
2022/02/19 06:15:34;;;;;;;1.55;0.70;;;20.80;38.00;;;;;;5096735;28;20476;-74
2022/02/19 06:18:18;;;;;;;1.00;0.70;;;20.70;37.90;;;;;;5114199;28;20607;-75
2022/02/19 06:20:44;;;;;;;0.93;0.60;;;20.80;38.00;;;;;;5115052;28;20067;-75
2022/02/19 06:23:24;;;;;;;1.10;0.80;;;20.80;38.00;;;;;;5097566;28;20048;-75
2022/02/19 06:25:50;;;;;;;1.15;0.75;;;20.80;38.00;;;;;;5095705;28;20101;-75
2022/02/19 06:28:15;;;;;;;1.83;0.85;;;20.70;37.90;;;;;;5093993;28;20052;-75
2022/02/19 06:30:43;;;;;;;1.55;0.88;;;20.70;37.90;;;;;;5096632;28;20167;-75
2022/02/19 06:33:12;;;;;;;1.10;0.70;;;20.80;38.00;;;;;;5096289;28;20100;-75
2022/02/19 06:35:39;;;;;;;1.00;0.60;;;20.80;37.90;;;;;;5095758;28;20048;-75
2022/02/19 06:38:32;;;;;;;2.28;0.70;;;20.80;38.00;;;;;;5109491;28;20546;-75
2022/02/19 06:41:00;;;;;;;1.48;0.82;;;20.70;37.90;;;;;;5096097;28;20547;-75
2022/02/19 06:43:39;;;;;;;1.70;0.90;;;20.80;37.90;;;;;;5096711;28;20142;-75
2022/02/19 06:46:06;;;;;;;0.90;0.77;;;20.80;37.90;;;;;;5114869;28;20046;-75
2022/02/19 06:48:32;;;;;;;1.08;0.75;;;20.80;37.90;;;;;;5113503;28;20051;-74
2022/02/19 06:50:58;;;;;;;1.00;0.80;;;20.80;37.90;;;;;;5095589;28;20081;-75
2022/02/19 06:53:25;;;;;;;1.60;1.00;;;20.70;37.90;;;;;;5094785;28;20143;-75
2022/02/19 06:55:50;;;;;;;1.58;0.90;;;20.80;38.50;;;;;;5096490;28;20044;-75
2022/02/19 06:58:17;;;;;;;1.08;0.75;;;20.80;37.90;;;;;;5095228;28;20048;-75
2022/02/19 07:00:53;;;;;;;1.80;0.90;;;20.80;38.50;;;;;;5114521;28;20139;-75
2022/02/19 07:03:19;;;;;;;0.60;0.60;;;20.80;37.90;;;;;;5095470;28;20072;-75
2022/02/19 07:05:51;;;;;;;1.25;0.80;;;20.80;37.90;;;;;;5094907;28;20451;-75
2022/02/19 07:08:29;;;;;;;1.30;0.70;;;20.70;37.90;;;;;;5095793;28;20134;-75
2022/02/19 07:10:55;;;;;;;0.77;0.70;;;20.80;37.90;;;;;;5095736;28;20047;-75
2022/02/19 07:13:21;;;;;;;1.02;0.60;;;20.80;37.90;;;;;;5095005;28;20105;-75
2022/02/19 07:15:47;;;;;;;1.38;1.08;;;20.80;37.90;;;;;;5114366;28;20046;-75
2022/02/19 07:18:15;;;;;;;0.90;0.65;;;20.70;37.80;;;;;;5096011;28;20059;-75
2022/02/19 07:20:52;;;;;;;0.98;0.70;;;20.70;37.90;;;;;;5094588;28;20048;-75
2022/02/19 07:23:19;;;;;;;2.05;0.95;;;20.70;37.90;;;;;;5095998;28;20108;-75
2022/02/19 07:25:45;;;;;;;1.30;0.63;;;20.70;37.80;;;;;;5095205;28;20105;-75
2022/02/19 07:28:10;;;;;;;0.90;0.68;;;20.80;37.90;;;;;;5094284;28;20381;-75
2022/02/19 07:30:38;;;;;;;0.98;0.60;;;20.70;37.80;;;;;;5096163;28;20048;-75
2022/02/19 07:33:08;;;;;;;0.80;0.60;;;20.80;37.90;;;;;;5096381;28;20072;-75
2022/02/19 07:35:45;;;;;;;;;;;20.80;37.90;;;;;;5113623;28;20392;-75
2022/02/19 07:38:11;;;;;;;1.77;0.70;;;20.80;37.80;;;;;;5077092;28;19916;-75
2022/02/19 07:40:37;;;;;;;1.33;0.80;;;20.80;37.80;;;;;;5078557;28;20055;-75
2022/02/19 07:43:03;;;;;;;1.08;0.70;;;20.80;37.80;;;;;;5095672;28;20052;-74
2022/02/19 07:46:01;;;;;;;1.00;0.57;;;20.80;37.80;;;;;;5112832;28;20071;-75
2022/02/19 07:48:46;;;;;;;1.35;0.70;;;20.80;37.70;;;;;;5113790;28;20096;-75
2022/02/19 08:00:18;;;;;;;1.10;0.60;;;20.90;37.60;;;;;;5095388;28;20056;-75
2022/02/19 08:02:51;;;;;;;0.77;0.73;;;21.00;37.60;;;;;;5095439;28;20054;-75
2022/02/19 08:05:16;;;;;;;1.55;0.70;;;21.00;37.60;;;;;;5094029;28;20048;-75
2022/02/19 08:07:45;;;;;;;2.05;0.60;;;21.00;37.50;;;;;;5095129;28;20433;-75
2022/02/19 08:10:11;;;;;;;1.33;0.80;;;21.00;37.40;;;;;;5095485;28;20224;-75
2022/02/19 08:12:36;;;;;;;1.60;0.93;;;21.10;37.30;;;;;;5112267;28;20101;-75
2022/02/19 08:15:02;;;;;;;1.38;0.70;;;21.10;37.30;;;;;;5113522;28;20087;-75
2022/02/19 08:17:29;;;;;;;0.65;0.60;;;21.10;37.20;;;;;;5095193;28;20051;-75
2022/02/19 08:19:56;;;;;;;1.15;0.80;;;21.20;37.20;;;;;;5113546;28;20508;-75
2022/02/19 08:22:21;;;;;;;0.80;0.60;;;21.20;37.20;;;;;;5113442;28;20047;-75
2022/02/19 08:24:47;;;;;;;0.77;0.60;;;21.30;37.20;;;;;;5095205;28;20100;-75
2022/02/19 08:27:12;;;;;;;0.65;0.65;;;21.30;37.10;;;;;;5113813;28;20048;-75
2022/02/19 08:29:38;;;;;;;0.80;0.80;;;21.20;37.10;;;;;;5113252;28;20047;-75
2022/02/19 08:32:04;;;;;;;0.85;0.63;;;21.20;37.10;;;;;;5113352;28;20134;-75
2022/02/19 08:34:30;;;;;;;1.30;0.90;;;21.20;37.20;;;;;;5113265;28;20389;-75
2022/02/19 08:36:56;;;;;;;0.95;0.60;;;21.20;37.20;;;;;;5095195;28;20100;-75
2022/02/19 08:39:23;;;;;;;1.95;0.88;;;21.10;37.20;;;;;;5113485;28;20534;-74
2022/02/19 08:41:49;;;;;;;0.70;0.60;;;21.10;37.30;;;;;;5113208;28;20134;-75
2022/02/19 08:44:14;;;;;;;1.98;0.80;;;21.10;37.30;;;;;;5111842;28;20087;-75
2022/02/19 08:46:40;;;;;;;0.73;0.52;;;21.10;37.30;;;;;;5094660;28;20146;-74
2022/02/19 08:49:06;;;;;;;1.30;0.63;;;21.10;37.30;;;;;;5112040;28;20134;-75
2022/02/19 08:51:31;;;;;;;0.90;0.50;;;21.10;37.30;;;;;;5112160;28;20051;-75
2022/02/19 08:53:57;;;;;;;1.20;0.65;;;21.10;37.20;;;;;;5112991;28;20130;-75
2022/02/19 08:56:22;;;;;;;0.93;0.75;;;21.20;37.30;;;;;;5093478;28;20135;-75
2022/02/19 08:58:48;;;;;;;1.50;0.88;;;21.20;37.20;;;;;;5111654;28;20091;-75
2022/02/19 09:01:13;;;;;;;0.65;0.50;;;21.20;37.20;;;;;;5112796;28;20078;-74
2022/02/19 09:03:39;;;;;;;0.70;0.55;;;21.20;37.20;;;;;;5112870;28;20055;-75
2022/02/19 09:06:05;;;;;;;0.63;0.55;;;21.10;37.20;;;;;;5112862;28;20043;-75
2022/02/19 09:08:31;;;;;;;0.98;0.68;;;21.10;37.30;;;;;;5112872;28;20082;-75
2022/02/19 09:10:56;;;;;;;1.58;0.80;;;21.10;37.30;;;;;;5093504;28;20090;-75
2022/02/19 09:13:22;;;;;;;2.50;0.70;;;21.10;37.30;;;;;;5112573;28;20086;-75
2022/02/19 09:15:49;;;;;;;0.75;0.60;;;21.10;37.30;;;;;;5112589;28;20054;-75
2022/02/19 09:18:16;;;;;;;0.98;0.60;;;21.10;37.30;;;;;;5112551;28;20059;-75
2022/02/19 09:20:42;;;;;;;0.82;0.60;;;21.10;37.30;;;;;;5112451;28;20060;-75
2022/02/19 09:23:08;;;;;;;0.57;0.50;;;21.10;37.30;;;;;;5112652;28;20055;-75
2022/02/19 09:25:34;;;;;;;0.77;0.60;;;21.10;37.30;;;;;;5112430;28;20064;-75
2022/02/19 09:28:00;;;;;;;1.17;0.60;;;21.10;37.40;;;;;;5094184;28;20048;-75
2022/02/19 09:30:25;;;;;;;0.75;0.50;;;21.00;37.30;;;;;;5112419;28;20130;-75
2022/02/19 09:32:51;;;;;;;0.80;0.60;;;21.00;37.30;;;;;;5111265;28;20415;-75
2022/02/19 09:35:17;;;;;;;0.88;0.82;;;21.10;37.40;;;;;;5112361;28;20091;-75
2022/02/19 09:37:42;;;;;;;2.13;0.80;;;21.00;37.30;;;;;;5112518;28;20100;-75
2022/02/19 09:40:10;;;;;;;1.30;0.70;;;21.00;37.40;;;;;;5112715;28;20054;-75
2022/02/19 09:42:39;;;;;;;1.55;0.60;;;21.00;37.40;;;;;;5094081;28;20074;-75
2022/02/19 09:45:07;;;;;;;0.88;0.70;;;21.00;37.40;;;;;;5093363;28;20487;-75
2022/02/19 09:47:35;;;;;;;1.70;0.52;;;21.00;37.40;;;;;;5112281;28;20052;-75
2022/02/19 09:50:01;;;;;;;1.25;0.68;;;21.00;37.40;;;;;;5112608;28;20135;-75
2022/02/19 09:52:27;;;;;;;1.08;0.73;;;21.00;37.50;;;;;;5112186;28;20120;-75
2022/02/19 09:54:58;;;;;;;1.13;0.68;;;20.90;37.50;;;;;;5094268;28;20051;-75
2022/02/19 09:57:23;;;;;;;0.70;0.60;;;20.90;37.50;;;;;;5112342;28;20522;-75
2022/02/19 09:59:49;;;;;;;0.40;0.40;;;21.00;37.50;;;;;;5112132;28;20079;-75
2022/02/19 10:02:15;;;;;;;1.27;0.63;;;21.00;37.50;;;;;;5112526;28;20059;-75
2022/02/19 10:04:44;;;;;;;0.70;0.63;;;21.00;37.40;;;;;;5115652;28;20074;-75
2022/02/19 10:07:17;;;;;;;0.88;0.60;;;21.00;37.40;;;;;;5115455;28;20055;-75
2022/02/19 10:09:49;;;;;;;0.50;0.50;;;21.00;37.40;;;;;;5115725;28;20051;-75
2022/02/19 10:12:16;;;;;;;1.17;0.70;;;21.00;37.40;;;;;;5097770;28;20055;-75
2022/02/19 10:14:43;;;;;;;0.68;0.68;;;21.00;37.50;;;;;;5097029;28;20083;-75
2022/02/19 10:17:18;;;;;;;0.82;0.57;;;21.00;37.50;;;;;;5115276;28;20055;-75
2022/02/19 10:19:50;;;;;;;1.27;0.80;;;21.00;37.50;;;;;;5113991;28;20197;-75
2022/02/19 10:22:19;;;;;;;0.88;0.60;;;20.90;37.50;;;;;;5097033;28;20047;-75
2022/02/19 10:24:51;;;;;;;0.95;0.70;;;21.00;37.50;;;;;;5115236;28;20062;-74
2022/02/19 10:27:16;;;;;;;3.33;0.85;;;21.00;37.40;;;;;;5115571;28;20055;-72
2022/02/19 10:29:51;;;;;;;1.10;0.65;;;21.00;37.70;;;;;;5096506;28;20061;-77
2022/02/19 10:32:17;;;;;;;1.92;0.68;;;21.00;37.70;;;;;;5115285;28;20111;-77
2022/02/19 10:34:56;;;;;;;2.42;0.75;;;21.10;37.70;;;;;;5097059;28;20047;-78
2022/02/19 10:37:28;;;;;;;3.22;0.70;;;21.10;37.60;;;;;;5115487;28;20134;-78
2022/02/19 10:40:00;;;;;;;3.17;0.60;;;21.10;37.50;;;;;;5115108;28;20112;-78
2022/02/19 10:42:36;;;;;;;2.20;0.73;;;21.20;37.50;;;;;;5096777;28;20079;-78
2022/02/19 10:45:09;;;;;;;0.80;0.57;;;21.20;37.50;;;;;;5115146;28;20470;-78
2022/02/19 10:47:35;;;;;;;1.02;0.68;;;21.10;37.40;;;;;;5114683;28;20063;-77
2022/02/19 10:50:08;;;;;;;0.68;0.50;;;21.20;37.40;;;;;;5114949;28;20051;-78
2022/02/19 10:52:35;;;;;;;1.55;0.85;;;21.20;37.30;;;;;;5079789;28;20051;-77
2022/02/19 10:55:08;;;;;;;0.70;0.55;;;21.20;37.30;;;;;;5113273;28;20449;-78
2022/02/19 10:57:43;;;;;;;0.98;0.65;;;21.20;37.20;;;;;;5096403;28;20047;-78
2022/02/19 11:00:14;;;;;;;1.38;0.50;;;21.30;37.30;;;;;;5113372;28;20100;-78
2022/02/19 11:02:40;;;;;;;0.40;0.40;;;21.30;37.30;;;;;;5114953;28;20499;-77
2022/02/19 11:05:08;;;;;;;1.08;0.82;;;21.30;37.20;;;;;;5113397;28;20142;-78
2022/02/19 11:07:36;;;;;;;1.48;0.60;;;21.30;37.20;;;;;;5114449;28;20100;-78
2022/02/19 11:10:03;;;;;;;1.50;0.82;;;21.30;37.20;;;;;;5096259;28;20054;-78
2022/02/19 11:12:29;;;;;;;1.48;0.57;;;21.30;37.10;;;;;;5113159;28;20056;-78
2022/02/19 11:14:56;;;;;;;2.20;0.60;;;21.30;37.10;;;;;;5113730;28;20452;-78
2022/02/19 11:17:23;;;;;;;0.43;0.43;;;21.30;37.10;;;;;;5094229;28;20047;-78
2022/02/19 11:19:49;;;;;;;1.67;0.60;;;21.30;37.10;;;;;;5096012;28;20495;-78
2022/02/19 11:22:18;;;;;;;1.02;0.60;;;21.30;37.00;;;;;;5096385;28;20107;-78
2022/02/19 11:24:45;;;;;;;0.47;0.40;;;21.30;37.00;;;;;;5114338;28;20055;-78
2022/02/19 11:27:14;;;;;;;0.85;0.68;;;21.30;37.00;;;;;;5095857;28;20048;-78
2022/02/19 11:29:41;;;;;;;1.58;0.60;;;21.40;37.00;;;;;;5114874;28;20058;-78
2022/02/19 11:32:11;;;;;;;1.45;0.50;;;21.40;37.00;;;;;;5114246;28;20075;-78
2022/02/19 11:34:37;;;;;;;1.10;0.60;;;21.30;37.00;;;;;;5114167;28;20048;-78
2022/02/19 11:37:14;;;;;;;1.33;0.70;;;21.40;37.00;;;;;;5114192;28;20108;-78
2022/02/19 11:40:05;;;;;;;0.63;0.40;;;21.30;37.00;;;;;;5114138;28;20047;-78
2022/02/19 11:42:44;;;;;;;0.53;0.50;;;21.30;36.90;;;;;;5095853;28;20163;-78
2022/02/19 11:45:19;;;;;;;0.75;0.52;;;21.40;37.00;;;;;;5114149;28;20076;-78
2022/02/19 11:47:45;;;;;;;1.05;0.70;;;21.30;37.00;;;;;;5113698;28;20067;-78
2022/02/19 11:50:28;;;;;;;0.50;0.50;;;21.30;37.00;;;;;;5113862;28;20083;-78
2022/02/19 11:53:21;;;;;;;1.15;0.90;;;21.30;37.00;;;;;;5095855;28;20043;-78
2022/02/19 11:55:47;;;;;;;0.77;0.60;;;21.30;37.00;;;;;;5113522;28;20047;-78
2022/02/19 11:58:15;;;;;;;0.70;0.50;;;21.30;37.00;;;;;;5113649;28;20180;-78
2022/02/19 12:00:53;;;;;;;0.70;0.32;;;21.20;37.00;;;;;;5113804;28;20130;-78
2022/02/19 12:03:27;;;;;;;0.65;0.50;;;21.30;37.10;;;;;;5113736;28;20082;-78
2022/02/19 12:06:14;;;;;;;0.73;0.50;;;21.30;37.20;;;;;;5113480;28;20048;-78
2022/02/19 12:08:46;;;;;;;1.05;0.60;;;21.20;37.10;;;;;;5113604;28;20055;-78
2022/02/19 12:11:14;;;;;;;0.90;0.63;;;21.20;37.10;;;;;;5113633;28;20055;-78
2022/02/19 12:13:47;;;;;;;0.73;0.52;;;21.20;37.10;;;;;;5113623;28;20094;-78
2022/02/19 12:16:29;;;;;;;2.00;0.50;;;21.20;37.20;;;;;;5095488;28;20104;-78
2022/02/19 12:18:59;;;;;;;2.00;0.68;;;21.10;37.20;;;;;;5113469;28;20047;-78
2022/02/19 12:21:44;;;;;;;0.77;0.70;;;21.10;37.20;;;;;;5113814;28;20055;-77
2022/02/19 12:24:22;;;;;;;1.17;0.55;;;21.10;37.30;;;;;;5113412;28;20406;-78
2022/02/19 12:26:57;;;;;;;2.08;0.60;;;21.10;37.20;;;;;;5112268;28;20487;-78
2022/02/19 12:29:27;;;;;;;0.57;0.50;;;21.10;37.30;;;;;;5113762;28;20047;-78
2022/02/19 12:32:06;;;;;;;1.90;0.50;;;21.00;37.30;;;;;;5113358;28;20040;-78
2022/02/19 12:34:37;;;;;;;0.80;0.40;;;21.00;37.30;;;;;;5113336;28;20055;-78
2022/02/19 12:37:05;;;;;;;1.33;0.52;;;21.00;37.40;;;;;;5113732;28;20046;-77
2022/02/19 12:39:40;;;;;;;0.88;0.60;;;21.00;37.40;;;;;;5113412;28;20059;-77
2022/02/19 12:42:06;;;;;;;1.00;0.60;;;21.00;37.40;;;;;;5093391;28;20488;-78
2022/02/19 12:44:31;;;;;;;0.43;0.40;;;21.00;37.50;;;;;;5113204;28;20058;-77
2022/02/19 12:46:57;;;;;;;2.40;0.57;;;20.90;37.40;;;;;;5094764;28;20040;-78
2022/02/19 12:49:26;;;;;;;1.70;0.75;;;21.00;37.40;;;;;;5094745;28;20147;-77
2022/02/19 12:51:56;;;;;;;0.40;0.40;;;21.00;37.50;;;;;;5113141;28;20047;-78
2022/02/19 12:54:35;;;;;;;1.98;0.57;;;21.00;37.40;;;;;;5078429;28;20051;-78
2022/02/19 12:57:01;;;;;;;1.13;0.55;;;20.90;37.40;;;;;;5112919;28;20104;-78
2022/02/19 12:59:34;;;;;;;1.50;0.60;;;20.90;37.50;;;;;;5112966;28;20054;-78
2022/02/19 13:02:07;;;;;;;1.15;0.45;;;20.90;37.50;;;;;;5113165;28;20060;-78
2022/02/19 13:04:40;;;;;;;5.30;0.80;;;20.90;37.60;;;;;;5112970;28;20055;-76
2022/02/19 13:07:08;;;;;;;0.47;0.40;;;20.90;37.70;;;;;;5112669;28;20051;-76